Other Surface Observations
Issued by NWS Great Falls, MT

Home | Current Version | Previous Version | Text Only | Print | Product List | Glossary On
Versions: 1 2 3 4 5 6 7 8 9 10 11 12 13 14 15 16 17 18 19 20 21 22 23 24 25 26 27 28 29 30 31 32 33 34 35 36 37 38 39 40 41 42 43 44 45 46 47 48 49 50
886
SXUS55 KTFX 281444
OSOTFX
AREA AWOS OBSERVATIONS
NATIONAL WEATHER SERVICE GREAT FALLS MT
0844 AM MDT SUN AUG 28 2016

METAR KPO1 281445Z AUTO 30003KT 10SM 19/08 A2986 RMK POPLAR
METAR K1S3 281445Z AUTO 00000KT 10SM 17/06 A2993 RMK FORSYTH
METAR KS71 281445Z AUTO 25008KT 10SM 17/12 A2995 RMK CHINOOK
METAR K38S 281445Z AUTO 00000KT 10SM 19/02 A3012 RMK DEER LODGE
METAR K6S5 281445Z AUTO 19004KT 10SM 19/06 A3005 RMK HAMILTON
METAR KS59 281445Z AUTO 29003KT 10SM 18/04 A3000 RMK LIBBY
METAR K88M 281445Z AUTO 00000KT 10SM 14/09 RMK EUREKA



USA.gov is the U.S. government's official web portal to all federal, state and local government web resources and services.